Time;durP1;ratioP1;P1;durP2;ratioP2;P2;SDS_P1;SDS_P2;PMS_P1;PMS_P2;Temp;Humidity;BMP_temperature;BMP_pressure;BME280_temperature;BME280_humidity;BME280_pressure;Samples;Min_cycle;Max_cycle;Signal;HPM_P1;HPM_P2
2022/03/01 08:36:46;;;;;;;12.25;7.93;;;3.80;99.90;;;;;;5091036;28;20553;-78
2022/03/01 08:39:11;;;;;;;12.80;7.95;;;4.30;99.90;;;;;;5089586;28;20253;-77
2022/03/01 08:41:37;;;;;;;11.30;7.18;;;4.10;99.90;;;;;;5090779;28;20168;-76
2022/03/01 08:44:03;;;;;;;12.35;7.25;;;4.10;99.90;;;;;;5090832;28;20625;-79
2022/03/01 08:46:29;;;;;;;14.13;7.05;;;4.20;99.90;;;;;;5090628;28;20184;-79
2022/03/01 08:48:55;;;;;;;11.32;7.38;;;4.80;99.90;;;;;;5090642;28;20197;-78
2022/03/01 08:51:22;;;;;;;10.07;7.03;;;4.30;99.90;;;;;;5090627;28;20242;-78
2022/03/01 08:53:49;;;;;;;9.23;7.40;;;4.40;99.90;;;;;;5090496;28;20652;-76
2022/03/01 08:56:15;;;;;;;14.55;7.20;;;4.60;99.90;;;;;;5089719;28;20195;-76
2022/03/01 08:58:42;;;;;;;9.40;6.50;;;4.50;99.90;;;;;;5089042;28;20218;-75
2022/03/01 09:01:08;;;;;;;18.23;7.72;;;4.60;99.90;;;;;;5090213;28;20168;-76
2022/03/01 09:03:34;;;;;;;12.93;7.75;;;4.60;99.90;;;;;;5090292;28;20282;-78
2022/03/01 09:05:59;;;;;;;11.48;7.22;;;4.70;99.90;;;;;;5089293;28;20175;-78
2022/03/01 09:08:25;;;;;;;8.15;6.72;;;4.70;99.90;;;;;;5090308;28;20171;-84
2022/03/01 09:10:51;;;;;;;9.25;6.60;;;6.30;99.90;;;;;;5088918;28;20167;-86
2022/03/01 09:13:17;;;;;;;10.82;7.15;;;5.20;99.90;;;;;;5088102;28;20282;-87
2022/03/01 09:15:42;;;;;;;11.25;7.30;;;6.20;99.90;;;;;;5090148;28;20218;-85
2022/03/01 09:18:08;;;;;;;6.97;6.28;;;5.00;99.90;;;;;;5088909;28;20581;-81
2022/03/01 09:20:34;;;;;;;10.38;7.10;;;5.10;99.90;;;;;;5090092;28;20164;-75
2022/03/01 09:23:01;;;;;;;12.00;7.63;;;5.20;99.90;;;;;;5090054;28;20629;-75
2022/03/01 09:25:26;;;;;;;9.48;6.63;;;5.30;99.90;;;;;;5089873;28;20218;-75
2022/03/01 09:27:52;;;;;;;8.00;7.20;;;5.30;99.90;;;;;;5089930;28;20668;-75
2022/03/01 09:30:18;;;;;;;7.95;6.97;;;5.40;99.90;;;;;;5089337;28;20503;-75
2022/03/01 09:32:44;;;;;;;11.93;7.30;;;5.50;99.90;;;;;;5088604;28;20313;-76
2022/03/01 09:35:10;;;;;;;12.18;7.38;;;5.60;99.90;;;;;;5088260;28;20228;-75
2022/03/01 09:37:36;;;;;;;10.60;7.05;;;5.70;99.90;;;;;;5088319;28;20164;-75
2022/03/01 09:40:04;;;;;;;11.48;7.07;;;5.70;99.90;;;;;;5089560;28;20564;-75
2022/03/01 09:42:31;;;;;;;9.63;7.30;;;5.80;99.90;;;;;;5089602;28;20238;-75
2022/03/01 09:44:58;;;;;;;9.52;7.50;;;5.80;99.90;;;;;;5089399;28;20168;-75
2022/03/01 09:47:24;;;;;;;10.27;6.90;;;5.90;99.90;;;;;;5080020;28;20215;-75
2022/03/01 09:49:49;;;;;;;12.70;7.70;;;5.90;99.90;;;;;;5076118;28;20204;-75
2022/03/01 09:52:16;;;;;;;14.93;7.50;;;5.80;99.90;;;;;;5075980;28;20179;-75
2022/03/01 09:54:42;;;;;;;9.55;7.03;;;5.80;99.90;;;;;;5075893;28;20720;-75
2022/03/01 09:57:12;;;;;;;13.98;7.07;;;5.80;99.90;;;;;;5074584;28;20262;-75
2022/03/01 09:59:38;;;;;;;9.77;7.22;;;5.80;99.90;;;;;;5075817;28;20167;-75
2022/03/01 10:02:04;;;;;;;10.13;7.50;;;5.80;99.90;;;;;;5075774;28;20169;-81
2022/03/01 10:04:29;;;;;;;13.90;7.43;;;6.00;99.90;;;;;;5074455;28;20538;-80
2022/03/01 10:06:55;;;;;;;13.10;6.97;;;5.80;99.90;;;;;;5074458;28;20310;-80
2022/03/01 10:09:29;;;;;;;13.55;7.53;;;5.70;99.90;;;;;;5075702;28;20168;-81
2022/03/01 10:12:03;;;;;;;8.55;6.63;;;5.70;99.90;;;;;;5075739;28;20168;-80
2022/03/01 10:14:31;;;;;;;8.30;6.28;;;5.70;99.90;;;;;;5074566;28;20334;-79
2022/03/01 10:16:57;;;;;;;11.52;7.25;;;5.70;99.90;;;;;;5075580;28;20161;-77
2022/03/01 10:19:23;;;;;;;8.30;7.00;;;5.70;99.90;;;;;;5075570;28;20477;-77
2022/03/01 10:22:00;;;;;;;11.63;6.90;;;5.80;99.90;;;;;;5075463;28;20175;-81
2022/03/01 10:24:26;;;;;;;11.00;6.47;;;6.00;99.90;;;;;;5074078;28;20164;-79
2022/03/01 10:26:57;;;;;;;10.02;7.18;;;6.00;99.90;;;;;;5075321;28;20171;-79
2022/03/01 10:29:27;;;;;;;11.25;6.80;;;6.10;99.90;;;;;;5075356;28;20528;-82
2022/03/01 10:31:52;;;;;;;8.98;6.10;;;6.20;99.90;;;;;;5075261;28;20164;-79
2022/03/01 10:34:20;;;;;;;9.98;6.90;;;6.30;99.90;;;;;;5073907;28;20180;-81
2022/03/01 10:36:49;;;;;;;11.45;7.13;;;6.40;99.90;;;;;;5075187;28;20188;-81
2022/03/01 10:39:26;;;;;;;11.48;6.72;;;6.60;99.90;;;;;;5074935;28;20175;-81
2022/03/01 10:41:52;;;;;;;7.95;6.70;;;6.80;99.90;;;;;;5075021;28;20174;-81
2022/03/01 10:44:23;;;;;;;10.88;6.80;;;6.80;99.90;;;;;;5073958;28;20600;-81
2022/03/01 10:46:54;;;;;;;9.15;7.13;;;6.90;99.90;;;;;;5074888;28;20219;-81
2022/03/01 10:49:29;;;;;;;9.05;6.40;;;6.90;99.90;;;;;;5073663;28;20180;-80
2022/03/01 10:52:03;;;;;;;9.45;7.25;;;7.00;99.90;;;;;;5074592;28;20676;-78
2022/03/01 10:54:33;;;;;;;12.75;7.75;;;7.10;99.90;;;;;;5074680;28;20225;-77
2022/03/01 10:57:00;;;;;;;9.85;6.70;;;7.20;99.90;;;;;;5074725;28;20173;-77
2022/03/01 10:59:27;;;;;;;9.70;6.82;;;7.30;99.90;;;;;;5073513;28;20164;-72
2022/03/01 11:01:53;;;;;;;12.65;7.45;;;7.50;99.90;;;;;;5074642;28;20165;-75
2022/03/01 11:04:27;;;;;;;12.80;7.60;;;7.40;99.90;;;;;;5074554;28;20259;-79
2022/03/01 11:06:54;;;;;;;11.25;7.03;;;7.40;99.90;;;;;;5074783;28;20167;-80
2022/03/01 11:09:23;;;;;;;9.85;6.97;;;7.30;99.90;;;;;;5074547;28;20180;-80
2022/03/01 11:11:51;;;;;;;8.70;7.10;;;7.30;99.90;;;;;;5073053;28;20229;-83
2022/03/01 11:14:25;;;;;;;12.00;6.65;;;7.30;99.90;;;;;;5074251;28;20243;-82
2022/03/01 11:17:12;;;;;;;10.45;7.75;;;7.80;99.90;;;;;;5074316;28;20187;-82
2022/03/01 11:20:03;;;;;;;14.65;7.07;;;7.50;99.90;;;;;;5074526;28;20168;-81
2022/03/01 11:22:41;;;;;;;12.73;7.43;;;7.50;99.90;;;;;;5072901;28;20188;-79
2022/03/01 11:25:14;;;;;;;12.13;7.82;;;7.60;99.90;;;;;;5074164;28;20658;-81
2022/03/01 11:27:46;;;;;;;9.32;7.50;;;8.50;99.90;;;;;;5073864;28;20169;-82
2022/03/01 11:30:13;;;;;;;10.45;7.22;;;8.30;99.90;;;;;;5073892;28;20164;-83
2022/03/01 11:32:45;;;;;;;22.35;8.55;;;7.80;99.90;;;;;;5073867;28;20168;-81
2022/03/01 11:35:32;;;;;;;10.82;7.00;;;7.80;99.90;;;;;;5073820;28;20224;-82
2022/03/01 11:38:01;;;;;;;13.10;7.25;;;7.90;99.90;;;;;;5072694;28;20225;-85
2022/03/01 11:40:35;;;;;;;8.77;7.32;;;8.90;99.90;;;;;;5073877;28;20188;-81
2022/03/01 11:43:26;;;;;;;;;;;;;;;;;;;;;
2022/03/01 11:46:39;;;;;;;10.60;6.65;;;7.90;99.90;;;;;;5073664;28;20229;-85
2022/03/01 11:49:05;;;;;;;9.77;7.90;;;8.00;99.90;;;;;;5072385;28;20241;-86
2022/03/01 11:51:39;;;;;;;9.63;6.90;;;8.00;99.90;;;;;;5072403;28;20168;-77
2022/03/01 11:54:11;;;;;;;13.23;9.02;;;7.90;99.90;;;;;;5073617;28;20166;-76
2022/03/01 11:56:38;;;;;;;12.15;7.40;;;8.80;99.90;;;;;;5073539;28;20593;-77
2022/03/01 11:59:09;;;;;;;11.23;6.95;;;7.90;99.90;;;;;;5073302;28;20707;-76
2022/03/01 12:01:35;;;;;;;10.10;7.68;;;7.90;99.90;;;;;;5073543;28;20179;-77
2022/03/01 12:04:04;;;;;;;9.25;6.97;;;7.90;99.90;;;;;;5073555;28;20576;-78
2022/03/01 12:06:33;;;;;;;9.55;7.05;;;7.90;99.90;;;;;;5072161;28;20565;-77
2022/03/01 12:09:03;;;;;;;14.73;7.93;;;7.90;99.90;;;;;;5073338;28;20180;-77
2022/03/01 12:11:37;;;;;;;14.45;8.23;;;7.80;99.90;;;;;;5072184;28;20180;-77
2022/03/01 12:14:05;;;;;;;8.75;7.15;;;7.80;99.90;;;;;;5073454;28;20630;-77
2022/03/01 12:16:32;;;;;;;9.38;7.15;;;7.90;99.90;;;;;;5073409;28;20172;-78
2022/03/01 12:19:28;;;;;;;10.55;7.03;;;7.90;99.90;;;;;;5073235;28;20167;-77
2022/03/01 12:21:55;;;;;;;12.00;6.88;;;8.10;99.90;;;;;;5073054;28;20180;-83
2022/03/01 12:24:23;;;;;;;9.32;6.40;;;8.20;99.90;;;;;;5071845;28;20168;-85
2022/03/01 12:26:52;;;;;;;7.38;6.47;;;9.60;99.90;;;;;;5071922;28;20211;-87
2022/03/01 12:29:24;;;;;;;8.45;7.13;;;8.40;99.90;;;;;;5072058;28;20169;-86
2022/03/01 12:31:56;;;;;;;10.30;7.13;;;8.40;99.90;;;;;;5073270;28;20168;-84
2022/03/01 12:34:25;;;;;;;11.57;7.32;;;9.10;99.90;;;;;;5072844;28;20665;-84
2022/03/01 12:36:54;;;;;;;10.18;7.38;;;9.50;99.90;;;;;;5071933;28;20582;-82
2022/03/01 12:39:21;;;;;;;9.13;7.57;;;9.50;99.90;;;;;;5073058;28;20168;-79
2022/03/01 12:41:48;;;;;;;10.85;6.63;;;8.60;99.90;;;;;;5073193;28;20164;-81
2022/03/01 12:44:14;;;;;;;10.05;6.93;;;8.70;99.90;;;;;;5071810;28;20172;-81
2022/03/01 12:46:42;;;;;;;8.88;7.00;;;9.80;99.90;;;;;;5071654;28;20610;-80
2022/03/01 12:49:10;;;;;;;12.90;8.00;;;9.50;99.90;;;;;;5073059;28;20622;-81
2022/03/01 12:51:37;;;;;;;10.57;7.13;;;8.80;99.90;;;;;;5071820;28;20234;-79
2022/03/01 12:54:10;;;;;;;11.05;7.75;;;8.80;99.90;;;;;;5073127;28;20165;-79
2022/03/01 12:56:37;;;;;;;10.52;6.75;;;8.70;99.90;;;;;;5072950;28;20175;-80
2022/03/01 12:59:14;;;;;;;9.80;7.97;;;8.80;99.90;;;;;;5072993;28;20493;-79
2022/03/01 13:01:43;;;;;;;12.35;7.72;;;9.50;99.90;;;;;;5072879;28;20179;-79
2022/03/01 13:04:09;;;;;;;11.60;7.57;;;9.40;99.90;;;;;;5072933;28;20176;-79
2022/03/01 13:06:36;;;;;;;11.52;6.32;;;8.70;99.90;;;;;;5072640;28;20715;-79
2022/03/01 13:09:05;;;;;;;9.23;7.20;;;8.70;99.90;;;;;;5072798;28;20164;-81
2022/03/01 13:11:32;;;;;;;8.57;6.35;;;8.70;99.90;;;;;;5072792;28;20165;-81
2022/03/01 13:14:09;;;;;;;9.40;7.40;;;8.70;99.90;;;;;;5071670;28;20172;-80
2022/03/01 13:16:43;;;;;;;11.65;7.03;;;9.30;99.90;;;;;;5071473;28;20629;-80
2022/03/01 13:19:14;;;;;;;11.93;8.13;;;8.70;99.90;;;;;;5072754;28;20271;-79
2022/03/01 13:21:47;;;;;;;9.50;6.82;;;8.80;99.90;;;;;;5073297;28;20177;-79
2022/03/01 13:24:28;;;;;;;10.90;7.65;;;8.80;99.90;;;;;;5076542;28;20595;-79
2022/03/01 13:26:59;;;;;;;12.88;7.95;;;8.80;99.90;;;;;;5076534;28;20177;-78
2022/03/01 13:29:29;;;;;;;12.57;7.65;;;8.80;99.90;;;;;;5076506;28;20247;-78
2022/03/01 13:32:06;;;;;;;8.68;6.82;;;8.90;99.90;;;;;;5076346;28;20251;-78
2022/03/01 13:34:34;;;;;;;10.23;7.07;;;8.90;99.90;;;;;;5074949;28;20680;-80
2022/03/01 13:37:18;;;;;;;11.13;7.25;;;9.50;99.90;;;;;;5076713;28;20267;-84
2022/03/01 13:39:52;;;;;;;9.90;7.10;;;9.10;99.90;;;;;;5075117;28;20225;-82
2022/03/01 13:42:18;;;;;;;9.00;6.90;;;9.20;99.90;;;;;;5076308;28;20168;-82
2022/03/01 13:44:46;;;;;;;9.98;7.55;;;9.70;99.90;;;;;;5075982;28;20280;-83
2022/03/01 13:47:14;;;;;;;12.18;7.72;;;9.40;99.90;;;;;;5076063;28;20164;-77
2022/03/01 13:49:43;;;;;;;10.38;6.65;;;9.40;99.90;;;;;;5074749;28;20168;-77
2022/03/01 13:52:15;;;;;;;8.75;7.50;;;9.40;99.90;;;;;;5075955;28;20175;-77
2022/03/01 13:54:57;;;;;;;10.23;7.35;;;9.40;99.90;;;;;;5075955;28;20175;-77
2022/03/01 13:57:27;;;;;;;8.93;6.97;;;9.40;99.90;;;;;;5075829;28;20179;-77
2022/03/01 14:00:08;;;;;;;7.22;6.47;;;9.40;99.90;;;;;;5075987;28;20266;-76
2022/03/01 14:02:35;;;;;;;7.88;6.82;;;9.40;99.90;;;;;;5075877;28;20160;-77
2022/03/01 14:05:03;;;;;;;12.07;8.35;;;9.40;99.90;;;;;;5074424;28;20425;-77
2022/03/01 14:07:29;;;;;;;9.18;7.32;;;9.40;99.90;;;;;;5075724;28;20173;-77
2022/03/01 14:09:54;;;;;;;11.02;7.45;;;9.30;99.90;;;;;;5075957;28;20164;-77
2022/03/01 14:12:34;;;;;;;11.68;7.30;;;9.30;99.90;;;;;;5075571;28;20164;-77
2022/03/01 14:15:00;;;;;;;8.10;6.82;;;9.30;99.90;;;;;;5075676;28;20191;-77
2022/03/01 14:17:26;;;;;;;11.82;6.90;;;9.50;99.90;;;;;;5075549;28;20628;-77
2022/03/01 14:19:57;;;;;;;8.77;6.45;;;9.40;99.90;;;;;;5075458;28;20293;-78
2022/03/01 14:22:24;;;;;;;9.70;6.25;;;9.40;99.90;;;;;;5075507;28;20169;-79
2022/03/01 14:24:58;;;;;;;10.75;7.50;;;9.40;99.90;;;;;;5074059;28;20176;-79
2022/03/01 14:27:24;;;;;;;10.55;6.97;;;9.40;99.90;;;;;;5074048;28;20172;-79
2022/03/01 14:29:50;;;;;;;12.40;7.97;;;9.30;99.90;;;;;;5075342;28;20172;-79
2022/03/01 14:32:16;;;;;;;7.80;6.93;;;9.30;99.90;;;;;;5074190;28;20164;-79
2022/03/01 14:34:43;;;;;;;7.82;6.18;;;9.40;99.90;;;;;;5075246;28;20243;-85
2022/03/01 14:37:09;;;;;;;12.18;7.80;;;9.60;99.90;;;;;;5075171;28;20161;-81
2022/03/01 14:39:35;;;;;;;11.02;7.13;;;10.60;99.90;;;;;;5075127;28;20505;-81
2022/03/01 14:42:01;;;;;;;14.23;7.35;;;9.90;99.90;;;;;;5075095;28;20576;-82
2022/03/01 14:44:28;;;;;;;11.77;7.05;;;10.00;99.90;;;;;;5074991;28;20168;-81
2022/03/01 14:46:54;;;;;;;7.88;6.82;;;10.10;99.90;;;;;;5073498;28;20262;-82
2022/03/01 14:49:19;;;;;;;12.05;7.72;;;10.50;99.90;;;;;;5073638;28;20692;-82
2022/03/01 14:51:45;;;;;;;38.35;13.45;;;10.80;99.90;;;;;;5074953;28;20172;-82
2022/03/01 14:54:11;;;;;;;25.30;11.02;;;10.20;99.90;;;;;;5074851;28;20691;-83
2022/03/01 14:56:41;;;;;;;20.60;9.45;;;10.50;99.90;;;;;;5074652;28;20175;-83
2022/03/01 14:59:08;;;;;;;15.15;8.38;;;11.00;99.90;;;;;;5074751;28;20217;-80
2022/03/01 15:01:35;;;;;;;11.80;7.43;;;9.80;99.90;;;;;;5074675;28;20165;-81
2022/03/01 15:04:04;;;;;;;10.13;7.32;;;9.70;99.90;;;;;;5074703;28;20202;-83
2022/03/01 15:06:30;;;;;;;10.38;7.60;;;9.60;99.90;;;;;;5073485;28;20561;-81
2022/03/01 15:08:55;;;;;;;11.88;7.43;;;9.60;99.90;;;;;;5074593;28;20168;-79
2022/03/01 15:11:21;;;;;;;8.80;6.90;;;9.50;99.90;;;;;;5074485;28;20166;-81
2022/03/01 15:13:47;;;;;;;9.20;6.68;;;10.20;99.90;;;;;;5074309;28;20626;-82
2022/03/01 15:16:12;;;;;;;11.27;7.30;;;9.50;99.90;;;;;;5074220;28;20169;-78
2022/03/01 15:18:38;;;;;;;9.10;6.65;;;9.60;99.90;;;;;;5074358;28;20168;-80
2022/03/01 15:21:04;;;;;;;12.48;7.55;;;9.50;99.90;;;;;;5074333;28;20172;-81
2022/03/01 15:23:34;;;;;;;13.63;7.63;;;9.40;99.90;;;;;;5074133;28;20645;-81
2022/03/01 15:26:01;;;;;;;8.45;6.18;;;9.40;99.90;;;;;;5072877;28;20230;-81
2022/03/01 15:28:27;;;;;;;11.35;7.55;;;9.80;99.90;;;;;;5072885;28;20175;-80
2022/03/01 15:30:53;;;;;;;10.57;6.78;;;9.20;99.90;;;;;;5074118;28;20187;-77
2022/03/01 15:33:20;;;;;;;9.40;6.85;;;9.10;99.90;;;;;;5073041;28;20573;-77
2022/03/01 15:35:45;;;;;;;11.90;7.20;;;9.10;99.90;;;;;;5074065;28;20305;-79
2022/03/01 15:38:11;;;;;;;7.78;6.25;;;9.00;99.90;;;;;;5074002;28;20294;-77
2022/03/01 15:40:37;;;;;;;8.27;6.68;;;9.60;99.90;;;;;;5072677;28;20267;-78
2022/03/01 15:43:03;;;;;;;9.63;7.15;;;8.80;99.90;;;;;;5073920;28;20172;-77
2022/03/01 15:45:28;;;;;;;7.00;6.28;;;8.80;99.90;;;;;;5073172;28;20295;-77
2022/03/01 15:47:55;;;;;;;9.55;7.18;;;8.70;99.90;;;;;;5073843;28;20204;-77
2022/03/01 15:50:20;;;;;;;9.15;6.57;;;8.60;99.90;;;;;;5073750;28;20165;-77
2022/03/01 15:52:46;;;;;;;9.82;6.70;;;8.50;99.90;;;;;;5073734;28;20714;-78
2022/03/01 15:55:14;;;;;;;8.75;6.50;;;8.40;99.90;;;;;;5073696;28;20266;-79
2022/03/01 15:57:40;;;;;;;10.63;6.35;;;8.30;99.90;;;;;;5073611;28;20168;-79
2022/03/01 16:00:10;;;;;;;9.15;6.38;;;8.30;99.90;;;;;;5073609;28;20180;-79
2022/03/01 16:02:36;;;;;;;13.50;6.38;;;8.10;99.90;;;;;;5074032;28;20576;-78
2022/03/01 16:05:03;;;;;;;10.32;7.43;;;8.10;99.90;;;;;;5073587;28;20192;-78
2022/03/01 16:07:29;;;;;;;7.78;6.47;;;8.00;99.90;;;;;;5073565;28;20217;-74
2022/03/01 16:09:57;;;;;;;9.57;6.65;;;7.90;99.90;;;;;;5072296;28;20263;-75
2022/03/01 16:12:25;;;;;;;9.35;6.57;;;7.80;99.90;;;;;;5073205;28;20519;-74
2022/03/01 16:14:51;;;;;;;9.38;7.05;;;7.80;99.90;;;;;;5073445;28;20165;-76
2022/03/01 16:17:17;;;;;;;11.38;7.28;;;7.70;99.90;;;;;;5072004;28;20222;-76
2022/03/01 16:19:43;;;;;;;11.20;8.15;;;7.60;99.90;;;;;;5073446;28;20211;-76
2022/03/01 16:22:10;;;;;;;6.53;5.82;;;7.60;99.90;;;;;;5073367;28;20169;-76
2022/03/01 16:24:36;;;;;;;12.52;6.75;;;7.50;99.90;;;;;;5073181;28;20222;-76
2022/03/01 16:27:03;;;;;;;10.15;7.13;;;7.50;99.90;;;;;;5073163;28;20175;-76
